Pilot Rock, Oregon
Current Conditions -  °F | °C
As of 4:53 PM on Friday 28 Nov 2014 (Local Time) from KPDT Reporting Station
Broken Clouds Broken Clouds  
Wind Chill: 56°   Ceiling: 6500
Heat Index: 56°   Visibility: 10mi
Dew Point: 36°   Wind: 12mph
Humidity: 47%   Direction: 210°SSW
Pressure: 29.42"   Gusts: 23mph
Location:  45.48°N, 118.83°W
Report Text: KPDT 290053Z 21010G20KT 10SM BKN065 BKN080 13/02 A2942 RMK AO2 PK WND 20026/0005 SLP955 T01330022
Loading
Personal Weather Stations






























Interactive Weather Map New forecast layout! Learn more

10-Day Weather Forecast

Advertisements
Track Severe Weather on mobile